createdAt,value
2019-03-11T00:00:03.935Z,2.36
2019-03-11T00:02:04.180Z,2.55
2019-03-11T00:04:04.196Z,4.52
2019-03-11T00:06:04.207Z,3.45
2019-03-11T00:08:04.082Z,2.59
2019-03-11T00:10:04.324Z,3.24
2019-03-11T00:12:04.186Z,3.42
2019-03-11T00:14:04.245Z,2.86
2019-03-11T00:16:04.436Z,2.08
2019-03-11T00:18:03.979Z,1.47
2019-03-11T00:20:04.281Z,3.89
2019-03-11T00:22:04.040Z,3.13
2019-03-11T00:24:04.307Z,2.89
2019-03-11T00:26:04.519Z,2.65
2019-03-11T00:28:04.131Z,3.25
2019-03-11T00:30:04.246Z,2.65
2019-03-11T00:32:04.232Z,2.15
2019-03-11T00:34:04.077Z,2.69
2019-03-11T00:36:04.047Z,2.05
2019-03-11T00:38:04.179Z,2.02
2019-03-11T00:40:04.112Z,3.51
2019-03-11T00:42:04.110Z,2.09
2019-03-11T00:44:04.415Z,3.23
2019-03-11T00:46:04.173Z,3.24
2019-03-11T00:48:04.359Z,2.93
2019-03-11T00:50:04.256Z,2.56
2019-03-11T00:52:04.188Z,3.03
2019-03-11T00:54:04.186Z,2.30
2019-03-11T00:56:04.287Z,4.01
2019-03-11T00:58:04.091Z,2.34
2019-03-11T01:00:04.006Z,3.08
2019-03-11T01:02:04.118Z,2.18
2019-03-11T01:04:04.165Z,3.08
2019-03-11T01:06:04.147Z,3.66
2019-03-11T01:08:04.262Z,1.90
2019-03-11T01:10:04.079Z,2.24
2019-03-11T01:12:04.275Z,2.47
2019-03-11T01:14:04.294Z,2.40
2019-03-11T01:16:04.305Z,2.08
2019-03-11T01:18:04.219Z,3.73
2019-03-11T01:20:04.329Z,3.28
2019-03-11T01:22:04.042Z,2.26
2019-03-11T01:24:04.456Z,3.29
2019-03-11T01:26:04.179Z,2.37
2019-03-11T01:28:04.274Z,3.11
2019-03-11T01:30:04.482Z,2.50
2019-03-11T01:32:04.086Z,3.49
2019-03-11T01:34:03.949Z,2.74
2019-03-11T01:36:04.208Z,2.86
2019-03-11T01:38:04.321Z,2.87
2019-03-11T01:40:04.412Z,3.83
2019-03-11T01:42:04.346Z,2.79
2019-03-11T01:44:04.563Z,3.27
2019-03-11T01:46:04.164Z,2.91
2019-03-11T01:48:04.274Z,2.52
2019-03-11T01:50:04.500Z,3.27
2019-03-11T01:52:04.302Z,2.14
2019-03-11T01:54:04.315Z,2.60
2019-03-11T01:56:04.122Z,3.09
2019-03-11T01:58:04.339Z,2.86
2019-03-11T02:00:04.148Z,2.75
2019-03-11T02:02:04.157Z,4.43
2019-03-11T02:04:04.168Z,3.31
2019-03-11T02:06:04.182Z,4.67
2019-03-11T02:08:04.600Z,4.40
2019-03-11T02:10:04.212Z,4.51
2019-03-11T02:12:04.139Z,4.31
2019-03-11T02:14:04.434Z,3.53
2019-03-11T02:16:04.251Z,2.79
2019-03-11T02:18:04.155Z,3.92
2019-03-11T02:20:04.259Z,2.51
2019-03-11T02:22:04.235Z,3.48
2019-03-11T02:24:04.438Z,3.95
2019-03-11T02:26:03.996Z,4.44
2019-03-11T02:28:04.307Z,4.42
2019-03-11T02:30:04.129Z,2.88
2019-03-11T02:32:04.320Z,4.66
2019-03-11T02:34:04.181Z,3.08
2019-03-11T02:36:04.264Z,2.65
2019-03-11T02:38:04.267Z,2.70
2019-03-11T02:40:04.226Z,4.35
2019-03-11T02:42:04.191Z,3.50
2019-03-11T02:44:04.409Z,2.77
2019-03-11T02:46:04.313Z,3.44
2019-03-11T02:48:07.419Z,6.49
2019-03-11T02:50:04.242Z,3.80
2019-03-11T02:52:04.249Z,4.47
2019-03-11T02:54:07.337Z,4.13
2019-03-11T02:56:04.267Z,3.75
2019-03-11T02:58:04.484Z,4.27
2019-03-11T03:00:07.243Z,3.28
2019-03-11T03:02:04.301Z,4.30
2019-03-11T03:04:04.073Z,3.17
2019-03-11T03:06:04.113Z,2.91
2019-03-11T03:08:04.115Z,3.61
2019-03-11T03:10:04.270Z,2.89
2019-03-11T03:12:04.158Z,2.06
2019-03-11T03:14:06.975Z,3.11
2019-03-11T03:16:04.181Z,2.04
2019-03-11T03:18:04.403Z,2.14
2019-03-11T03:20:04.335Z,3.91
2019-03-11T03:22:04.010Z,3.80
2019-03-11T03:24:04.140Z,3.01
2019-03-11T03:26:04.035Z,1.96
2019-03-11T03:28:04.062Z,1.29
2019-03-11T03:30:03.991Z,2.72
2019-03-11T03:32:04.578Z,1.65
2019-03-11T03:34:04.184Z,1.61
2019-03-11T03:36:04.397Z,1.90
2019-03-11T03:38:04.205Z,2.95
2019-03-11T03:40:04.128Z,1.32
2019-03-11T03:42:04.146Z,1.97
2019-03-11T03:44:04.087Z,1.36
2019-03-11T03:46:17.884Z,1.20
2019-03-11T03:48:04.271Z,2.90
2019-03-11T03:50:04.273Z,2.54
2019-03-11T03:52:04.296Z,2.24
2019-03-11T03:54:04.301Z,3.27
2019-03-11T03:56:04.418Z,1.63
2019-03-11T03:58:04.568Z,1.86
2019-03-11T04:00:04.437Z,2.01
2019-03-11T04:02:04.204Z,2.22
2019-03-11T04:04:04.871Z,2.27
2019-03-11T04:06:04.492Z,1.77
2019-03-11T04:08:04.387Z,2.32
2019-03-11T04:10:04.051Z,1.93
2019-03-11T04:12:04.403Z,2.25
2019-03-11T04:14:04.210Z,1.64
2019-03-11T04:16:04.078Z,0.97
2019-03-11T04:18:04.332Z,1.87
2019-03-11T04:20:04.362Z,2.65
2019-03-11T04:22:04.358Z,0.56
2019-03-11T04:24:04.253Z,1.86
2019-03-11T04:26:04.511Z,1.57
2019-03-11T04:28:04.391Z,2.77
2019-03-11T04:30:04.401Z,1.75
2019-03-11T04:32:04.325Z,3.17
2019-03-11T04:34:04.732Z,2.29
2019-03-11T04:36:04.363Z,2.79
2019-03-11T04:38:04.375Z,2.03
2019-03-11T04:40:04.278Z,2.52
2019-03-11T04:42:04.492Z,2.85
2019-03-11T04:44:06.653Z,1.94
2019-03-11T04:46:04.327Z,1.72
2019-03-11T04:48:04.628Z,1.88
2019-03-11T04:50:04.524Z,0.66
2019-03-11T04:52:04.740Z,1.55
2019-03-11T04:54:04.499Z,0.78
2019-03-11T04:56:04.482Z,1.37
2019-03-11T04:58:04.496Z,1.42
2019-03-11T05:00:04.415Z,1.94
2019-03-11T05:02:04.489Z,2.10
2019-03-11T05:04:04.294Z,0.87
2019-03-11T05:06:04.409Z,1.00
2019-03-11T05:08:04.427Z,0.30
2019-03-11T05:10:04.563Z,1.78
2019-03-11T05:12:04.445Z,2.31
2019-03-11T05:14:04.388Z,1.64
2019-03-11T05:16:04.666Z,2.88
2019-03-11T05:18:04.479Z,1.45
2019-03-11T05:20:04.288Z,1.73
2019-03-11T05:22:05.459Z,2.42
2019-03-11T05:24:04.277Z,2.26
2019-03-11T05:26:04.469Z,3.12
2019-03-11T05:28:04.321Z,3.00
2019-03-11T05:30:04.656Z,3.21
2019-03-11T05:32:04.655Z,4.00
2019-03-11T05:34:04.362Z,2.98
2019-03-11T05:36:04.480Z,4.60
2019-03-11T05:38:04.398Z,2.31
2019-03-11T05:40:04.404Z,3.69
2019-03-11T05:42:04.114Z,3.10
2019-03-11T05:44:04.169Z,4.10
2019-03-11T05:46:04.358Z,3.22
2019-03-11T05:48:04.444Z,3.85
2019-03-11T05:50:04.457Z,3.26
2019-03-11T05:52:04.273Z,3.01
2019-03-11T05:54:04.478Z,5.83
2019-03-11T05:56:04.200Z,5.16
2019-03-11T05:58:04.602Z,4.02
2019-03-11T06:00:04.728Z,1.88
2019-03-11T06:02:04.322Z,2.98
2019-03-11T06:04:04.537Z,2.96
2019-03-11T06:06:04.348Z,5.35
2019-03-11T06:08:04.353Z,2.99
2019-03-11T06:10:04.538Z,4.24
2019-03-11T06:12:04.582Z,4.15
2019-03-11T06:14:04.406Z,3.11
2019-03-11T06:16:04.511Z,2.65
2019-03-11T06:18:04.363Z,3.55
2019-03-11T06:20:04.538Z,4.06
2019-03-11T06:22:04.301Z,4.33
2019-03-11T06:24:04.554Z,2.51
2019-03-11T06:26:04.494Z,2.84
2019-03-11T06:28:04.580Z,2.30
2019-03-11T06:30:04.586Z,2.61
2019-03-11T06:32:04.493Z,3.43
2019-03-11T06:34:04.713Z,2.28
2019-03-11T06:36:04.518Z,3.25
2019-03-11T06:38:04.331Z,3.18
2019-03-11T06:40:04.349Z,1.89
2019-03-11T06:42:04.327Z,2.60
2019-03-11T06:44:04.775Z,2.96
2019-03-11T06:46:04.788Z,2.26
2019-03-11T06:48:04.367Z,2.28
2019-03-11T06:50:04.505Z,3.35
2019-03-11T06:52:04.519Z,3.32
2019-03-11T06:54:04.517Z,2.85
2019-03-11T06:56:04.638Z,2.94
2019-03-11T06:58:04.648Z,2.69
2019-03-11T07:00:04.666Z,3.04
2019-03-11T07:02:04.448Z,3.74
2019-03-11T07:04:04.888Z,2.10
2019-03-11T07:06:04.488Z,2.48
2019-03-11T07:08:04.503Z,3.01
2019-03-11T07:10:04.507Z,1.39
2019-03-11T07:12:04.533Z,1.79
2019-03-11T07:14:04.533Z,2.16
2019-03-11T07:16:04.342Z,2.30
2019-03-11T07:18:04.414Z,0.16
2019-03-11T07:20:04.469Z,1.76
2019-03-11T07:22:04.586Z,1.62
2019-03-11T07:24:04.551Z,1.69
2019-03-11T07:26:04.712Z,1.73
2019-03-11T07:28:04.512Z,1.20
2019-03-11T07:30:04.627Z,2.36
2019-03-11T07:32:04.551Z,1.22
2019-03-11T07:34:05.061Z,2.97
2019-03-11T07:36:04.664Z,3.29
2019-03-11T07:38:04.884Z,1.76
2019-03-11T07:40:04.687Z,0.62
2019-03-11T07:42:04.699Z,0.14
2019-03-11T07:44:04.712Z,1.59
2019-03-11T07:46:04.720Z,0.33
2019-03-11T07:48:04.525Z,1.21
2019-03-11T07:50:04.759Z,0.25
2019-03-11T07:52:04.746Z,0.78
2019-03-11T07:54:04.763Z,1.47
2019-03-11T07:56:04.674Z,1.23
2019-03-11T07:58:04.908Z,1.14
2019-03-11T08:00:05.230Z,1.73
2019-03-11T08:02:04.712Z,1.88
2019-03-11T08:04:04.640Z,1.52
2019-03-11T08:06:04.733Z,0.93
2019-03-11T08:08:04.587Z,1.25
2019-03-11T08:10:04.428Z,0.82
2019-03-11T08:12:04.665Z,0.82
2019-03-11T08:14:04.680Z,1.82
2019-03-11T08:16:04.690Z,2.52
2019-03-11T08:18:04.601Z,1.49
2019-03-11T08:20:04.816Z,1.28
2019-03-11T08:22:04.492Z,3.71
2019-03-11T08:24:04.662Z,3.47
2019-03-11T08:26:04.703Z,1.73
2019-03-11T08:28:04.657Z,2.03
2019-03-11T08:30:04.667Z,2.76
2019-03-11T08:32:04.580Z,2.34
2019-03-11T08:34:04.703Z,3.44
2019-03-11T08:36:04.517Z,3.42
2019-03-11T08:38:05.387Z,4.00
2019-03-11T08:40:04.837Z,3.71
2019-03-11T08:42:04.738Z,5.24
2019-03-11T08:44:04.653Z,3.18
2019-03-11T08:46:04.597Z,2.51
2019-03-11T08:48:04.665Z,4.12
2019-03-11T08:50:04.565Z,4.99
2019-03-11T08:52:05.516Z,4.64
2019-03-11T08:54:04.597Z,4.32
2019-03-11T08:56:05.023Z,2.75
2019-03-11T08:58:04.485Z,1.22
2019-03-11T09:00:04.642Z,2.59
2019-03-11T09:02:04.650Z,4.24
2019-03-11T09:04:04.584Z,2.97
2019-03-11T09:06:04.671Z,3.62
2019-03-11T09:08:04.896Z,1.43
2019-03-11T09:10:04.629Z,2.34
2019-03-11T09:12:04.587Z,3.22
2019-03-11T09:14:04.695Z,1.61
2019-03-11T09:16:04.752Z,4.71
2019-03-11T09:18:04.617Z,2.12
2019-03-11T09:20:04.647Z,3.62
2019-03-11T09:22:04.583Z,3.59
2019-03-11T09:24:04.470Z,4.57
2019-03-11T09:26:04.615Z,3.11
2019-03-11T09:28:04.649Z,3.19
2019-03-11T09:30:04.723Z,3.02
2019-03-11T09:32:04.719Z,3.99
2019-03-11T09:34:05.137Z,3.77
2019-03-11T09:36:04.742Z,3.81
2019-03-11T09:38:04.864Z,2.57
2019-03-11T09:40:04.769Z,4.24
2019-03-11T09:42:04.780Z,4.37
2019-03-11T09:44:04.786Z,4.74
2019-03-11T09:46:04.808Z,3.40
2019-03-11T09:48:04.812Z,3.61
2019-03-11T09:50:04.729Z,2.84
2019-03-11T09:52:04.837Z,3.78
2019-03-11T09:54:04.955Z,3.60
2019-03-11T09:56:05.122Z,3.51
2019-03-11T09:58:04.883Z,5.71
2019-03-11T10:00:04.776Z,3.44
2019-03-11T10:02:04.994Z,5.39
2019-03-11T10:04:04.742Z,4.03
2019-03-11T10:06:04.817Z,5.13
2019-03-11T10:08:04.829Z,4.11
2019-03-11T10:10:05.045Z,4.11
2019-03-11T10:12:04.847Z,4.20
2019-03-11T10:14:04.863Z,3.07
2019-03-11T10:16:04.800Z,2.61
2019-03-11T10:18:04.895Z,3.46
2019-03-11T10:20:05.110Z,4.24
2019-03-11T10:22:04.801Z,3.20
2019-03-11T10:24:04.712Z,5.16
2019-03-11T10:26:04.827Z,4.05
2019-03-11T10:28:04.840Z,6.03
2019-03-11T10:30:04.776Z,5.39
2019-03-11T10:32:04.868Z,3.73
2019-03-11T10:34:05.099Z,2.94
2019-03-11T10:36:04.794Z,3.25
2019-03-11T10:38:04.793Z,4.24
2019-03-11T10:40:04.601Z,3.89
2019-03-11T10:42:04.693Z,5.91
2019-03-11T10:44:04.600Z,6.29
2019-03-11T10:46:04.835Z,3.02
2019-03-11T10:48:04.887Z,5.25
2019-03-11T10:50:04.973Z,2.74
2019-03-11T10:52:07.284Z,3.98
2019-03-11T10:54:05.210Z,5.00
2019-03-11T10:56:04.997Z,7.37
2019-03-11T10:58:04.806Z,6.36
2019-03-11T11:00:04.818Z,4.76
2019-03-11T11:02:04.850Z,6.30
2019-03-11T11:04:04.845Z,4.89
2019-03-11T11:06:05.104Z,6.77
2019-03-11T11:08:04.868Z,5.54
2019-03-11T11:10:04.759Z,5.05
2019-03-11T11:12:04.680Z,5.88
2019-03-11T11:14:04.886Z,5.31
2019-03-11T11:16:04.916Z,5.54
2019-03-11T11:18:05.028Z,5.77
2019-03-11T11:20:04.928Z,5.87
2019-03-11T11:22:04.849Z,5.00
2019-03-11T11:24:04.953Z,3.58
2019-03-11T11:26:04.866Z,5.44
2019-03-11T11:28:04.885Z,4.41
2019-03-11T11:30:04.886Z,4.56
2019-03-11T11:32:04.915Z,4.65
2019-03-11T11:34:04.913Z,6.75
2019-03-11T11:36:04.942Z,4.32
2019-03-11T11:38:05.152Z,4.99
2019-03-11T11:40:04.871Z,4.47
2019-03-11T11:42:04.984Z,4.28
2019-03-11T11:44:04.869Z,4.67
2019-03-11T11:46:04.874Z,4.39
2019-03-11T11:48:04.903Z,4.24
2019-03-11T11:50:04.771Z,4.23
2019-03-11T11:52:04.917Z,6.06
2019-03-11T11:54:05.030Z,3.98
2019-03-11T11:56:04.849Z,4.19
2019-03-11T11:58:04.952Z,3.71
2019-03-11T12:00:04.961Z,4.10
2019-03-11T12:02:05.083Z,3.95
2019-03-11T12:04:04.884Z,4.33
2019-03-11T12:06:05.215Z,3.75
2019-03-11T12:08:04.803Z,4.96
2019-03-11T12:10:04.819Z,4.47
2019-03-11T12:12:06.090Z,4.38
2019-03-11T12:14:04.934Z,4.62
2019-03-11T12:16:04.922Z,5.41
2019-03-11T12:18:04.886Z,2.62
2019-03-11T12:20:05.082Z,4.59
2019-03-11T12:22:04.880Z,3.26
2019-03-11T12:24:04.917Z,4.52
2019-03-11T12:26:05.011Z,3.74
2019-03-11T12:28:04.768Z,3.69
2019-03-11T12:30:05.042Z,4.03
2019-03-11T12:32:05.045Z,3.53
2019-03-11T12:34:05.068Z,5.58
2019-03-11T12:36:05.065Z,3.06
2019-03-11T12:38:04.989Z,4.79
2019-03-11T12:40:05.042Z,3.27
2019-03-11T12:42:05.109Z,3.82
2019-03-11T12:44:05.119Z,5.38
2019-03-11T12:46:05.026Z,2.65
2019-03-11T12:48:05.039Z,4.51
2019-03-11T12:50:05.159Z,5.22
2019-03-11T12:52:05.059Z,4.05
2019-03-11T12:54:05.071Z,3.58
2019-03-11T12:56:05.089Z,3.86
2019-03-11T12:58:05.202Z,4.31
2019-03-11T13:00:05.211Z,5.14
2019-03-11T13:02:05.118Z,3.40
2019-03-11T13:04:05.152Z,3.86
2019-03-11T13:06:05.139Z,3.96
2019-03-11T13:08:04.947Z,3.65
2019-03-11T13:10:05.097Z,4.28
2019-03-11T13:12:04.983Z,4.39
2019-03-11T13:14:05.081Z,3.73
2019-03-11T13:16:05.009Z,4.88
2019-03-11T13:18:05.042Z,5.77
2019-03-11T13:20:04.920Z,3.23
2019-03-11T13:22:05.036Z,2.34
2019-03-11T13:24:04.952Z,2.96
2019-03-11T13:26:05.161Z,3.25
2019-03-11T13:28:05.172Z,3.64
2019-03-11T13:30:05.011Z,3.36
2019-03-11T13:32:05.000Z,5.14
2019-03-11T13:34:05.098Z,3.20
2019-03-11T13:36:05.113Z,3.55
2019-03-11T13:38:05.128Z,2.92
2019-03-11T13:40:05.343Z,3.40
2019-03-11T13:42:05.155Z,2.13
2019-03-11T13:44:05.372Z,1.95
2019-03-11T13:46:05.167Z,2.05
2019-03-11T13:48:05.386Z,3.00
2019-03-11T13:50:05.085Z,2.15
2019-03-11T13:52:05.205Z,1.50
2019-03-11T13:54:05.120Z,1.70
2019-03-11T13:56:05.002Z,2.00
2019-03-11T13:58:05.175Z,1.32
2019-03-11T14:00:05.180Z,1.58
2019-03-11T14:02:05.092Z,1.01
2019-03-11T14:04:05.204Z,1.76
2019-03-11T14:06:05.217Z,2.12
2019-03-11T14:08:05.226Z,3.36
2019-03-11T14:10:05.241Z,3.62
2019-03-11T14:12:05.250Z,4.54
2019-03-11T14:14:05.171Z,2.58
2019-03-11T14:16:05.382Z,2.36
2019-03-11T14:18:05.287Z,3.97
2019-03-11T14:20:05.109Z,3.38
2019-03-11T14:22:05.112Z,3.59
2019-03-11T14:24:05.126Z,3.33
2019-03-11T14:26:05.099Z,4.06
2019-03-11T14:28:05.147Z,3.41
2019-03-11T14:30:05.061Z,2.99
2019-03-11T14:32:05.214Z,2.11
2019-03-11T14:34:05.107Z,2.30
2019-03-11T14:36:05.460Z,3.26
2019-03-11T14:38:05.119Z,3.04
2019-03-11T14:40:05.213Z,4.48
2019-03-11T14:42:05.122Z,1.73
2019-03-11T14:44:05.131Z,3.15
2019-03-11T14:46:04.915Z,3.03
2019-03-11T14:48:05.466Z,4.03
2019-03-11T14:50:04.901Z,2.95
2019-03-11T14:52:05.080Z,1.64
2019-03-11T14:54:05.297Z,3.03
2019-03-11T14:56:05.203Z,1.60
2019-03-11T14:58:04.974Z,2.17
2019-03-11T15:00:04.975Z,2.55
2019-03-11T15:02:05.340Z,2.56
2019-03-11T15:04:05.061Z,2.91
2019-03-11T15:06:05.155Z,3.04
2019-03-11T15:08:05.034Z,2.72
2019-03-11T15:10:05.168Z,1.11
2019-03-11T15:12:05.130Z,1.01
2019-03-11T15:14:04.966Z,2.62
2019-03-11T15:16:05.223Z,3.53
2019-03-11T15:18:05.224Z,3.42
2019-03-11T15:20:05.159Z,2.64
2019-03-11T15:22:05.110Z,1.95
2019-03-11T15:24:05.044Z,2.40
2019-03-11T15:26:05.732Z,2.53
2019-03-11T15:28:05.399Z,2.64
2019-03-11T15:30:05.078Z,2.11
2019-03-11T15:32:05.055Z,2.07
2019-03-11T15:34:05.224Z,3.06
2019-03-11T15:36:05.133Z,1.58
2019-03-11T15:38:05.254Z,2.24
2019-03-11T15:40:05.266Z,2.17
2019-03-11T15:42:05.711Z,2.90
2019-03-11T15:44:05.179Z,2.38
2019-03-11T15:46:05.149Z,1.09
2019-03-11T15:48:05.301Z,1.60
2019-03-11T15:50:05.318Z,2.74
2019-03-11T15:52:05.075Z,2.17
2019-03-11T15:54:05.350Z,1.13
2019-03-11T15:56:05.350Z,2.40
2019-03-11T15:58:05.311Z,2.46
2019-03-11T16:00:05.787Z,3.99
2019-03-11T16:02:05.702Z,3.44
2019-03-11T16:04:05.601Z,2.97
2019-03-11T16:06:05.091Z,4.78
2019-03-11T16:08:05.127Z,3.13
2019-03-11T16:10:15.988Z,3.25
2019-03-11T16:12:05.153Z,3.77
2019-03-11T16:14:05.261Z,1.66
2019-03-11T16:16:05.566Z,2.11
2019-03-11T16:18:05.294Z,4.24
2019-03-11T16:20:05.324Z,4.18
2019-03-11T16:22:05.401Z,2.25
2019-03-11T16:24:05.071Z,1.98
2019-03-11T16:26:05.219Z,2.27
2019-03-11T16:28:05.229Z,4.94
2019-03-11T16:30:05.123Z,3.21
2019-03-11T16:32:05.107Z,4.73
2019-03-11T16:34:05.276Z,3.74
2019-03-11T16:36:05.280Z,2.18
2019-03-11T16:38:05.391Z,2.52
2019-03-11T16:40:05.332Z,2.62
2019-03-11T16:42:08.377Z,3.05
2019-03-11T16:44:05.316Z,2.88
2019-03-11T16:46:05.852Z,2.12
2019-03-11T16:48:05.133Z,4.44
2019-03-11T16:50:05.246Z,3.32
2019-03-11T16:52:05.383Z,3.08
2019-03-11T16:54:05.471Z,2.73
2019-03-11T16:56:05.242Z,3.06
2019-03-11T16:58:05.303Z,4.36
2019-03-11T17:00:05.224Z,4.96
2019-03-11T17:02:05.428Z,4.93
2019-03-11T17:04:05.342Z,3.73
2019-03-11T17:06:05.667Z,4.31
2019-03-11T17:08:05.354Z,6.40
2019-03-11T17:10:05.578Z,4.34
2019-03-11T17:12:05.721Z,6.88
2019-03-11T17:14:05.201Z,3.87
2019-03-11T17:16:05.413Z,3.51
2019-03-11T17:18:05.422Z,4.06
2019-03-11T17:20:05.740Z,4.26
2019-03-11T17:22:05.340Z,4.81
2019-03-11T17:24:05.452Z,5.16
2019-03-11T17:26:05.148Z,3.06
2019-03-11T17:28:05.354Z,6.35
2019-03-11T17:30:05.303Z,5.13
2019-03-11T17:32:05.240Z,5.07
2019-03-11T17:34:05.523Z,5.18
2019-03-11T17:36:05.421Z,3.95
2019-03-11T17:38:05.853Z,4.33
2019-03-11T17:40:06.037Z,4.06
2019-03-11T17:42:05.761Z,5.89
2019-03-11T17:44:05.371Z,5.86
2019-03-11T17:46:05.592Z,4.71
2019-03-11T17:48:05.798Z,3.82
2019-03-11T17:50:05.613Z,4.65
2019-03-11T17:52:05.419Z,5.54
2019-03-11T17:54:05.734Z,3.64
2019-03-11T17:56:05.445Z,4.55
2019-03-11T17:58:05.444Z,3.67
2019-03-11T18:00:05.362Z,4.52
2019-03-11T18:02:05.370Z,4.54
2019-03-11T18:04:06.297Z,3.82
2019-03-11T18:06:11.562Z,5.56
2019-03-11T18:08:05.831Z,4.31
2019-03-11T18:10:05.826Z,6.16
2019-03-11T18:12:06.146Z,5.45
2019-03-11T18:14:05.616Z,3.87
2019-03-11T18:16:05.863Z,5.46
2019-03-11T18:18:05.652Z,4.58
2019-03-11T18:20:05.725Z,5.54
2019-03-11T18:22:05.732Z,6.21
2019-03-11T18:24:05.721Z,4.20
2019-03-11T18:26:05.725Z,3.89
2019-03-11T18:28:05.764Z,4.52
2019-03-11T18:30:05.855Z,4.66
2019-03-11T18:32:05.488Z,4.58
2019-03-11T18:34:06.175Z,5.53
2019-03-11T18:36:07.884Z,3.79
2019-03-11T18:38:05.915Z,3.86
2019-03-11T18:40:05.908Z,4.48
2019-03-11T18:42:06.008Z,3.68
2019-03-11T18:44:05.846Z,4.09
2019-03-11T18:46:05.939Z,6.99
2019-03-11T18:48:05.885Z,3.80
2019-03-11T18:50:05.643Z,5.43
2019-03-11T18:52:05.828Z,3.46
2019-03-11T18:54:05.905Z,4.89
2019-03-11T18:56:05.903Z,3.92
2019-03-11T18:58:05.914Z,3.10
2019-03-11T19:00:05.727Z,4.68
2019-03-11T19:02:05.842Z,4.22
2019-03-11T19:04:05.825Z,6.44
2019-03-11T19:06:05.889Z,6.09
2019-03-11T19:08:05.854Z,4.30
2019-03-11T19:10:06.291Z,4.44
2019-03-11T19:12:06.092Z,5.95
2019-03-11T19:14:06.129Z,4.50
2019-03-11T19:16:05.733Z,3.34
2019-03-11T19:18:05.912Z,3.90
2019-03-11T19:20:05.920Z,3.22
2019-03-11T19:22:05.958Z,4.81
2019-03-11T19:24:05.751Z,4.61
2019-03-11T19:26:05.560Z,3.78
2019-03-11T19:28:05.784Z,4.17
2019-03-11T19:30:05.904Z,3.37
2019-03-11T19:32:05.995Z,4.49
2019-03-11T19:34:05.629Z,5.55
2019-03-11T19:36:05.848Z,4.28
2019-03-11T19:38:05.849Z,4.14
2019-03-11T19:40:05.848Z,3.47
2019-03-11T19:42:05.848Z,4.00
2019-03-11T19:44:05.748Z,3.24
2019-03-11T19:46:05.821Z,4.63
2019-03-11T19:48:06.024Z,3.44
2019-03-11T19:50:07.236Z,5.82
2019-03-11T19:52:05.842Z,5.70
2019-03-11T19:54:05.924Z,5.01
2019-03-11T19:56:05.935Z,2.97
2019-03-11T19:58:05.937Z,4.65
2019-03-11T20:00:05.848Z,4.44
2019-03-11T20:02:05.912Z,3.24
2019-03-11T20:04:05.799Z,5.22
2019-03-11T20:06:06.152Z,4.78
2019-03-11T20:08:06.033Z,3.89
2019-03-11T20:10:05.761Z,1.78
2019-03-11T20:12:06.031Z,5.03
2019-03-11T20:14:05.474Z,5.32
2019-03-11T20:16:05.439Z,4.84
2019-03-11T20:18:05.379Z,5.03
2019-03-11T20:20:05.489Z,3.62
2019-03-11T20:22:05.857Z,4.07
2019-03-11T20:24:06.588Z,5.01
2019-03-11T20:26:05.831Z,6.16
2019-03-11T20:28:05.874Z,3.65
2019-03-11T20:30:06.045Z,4.76
2019-03-11T20:32:05.535Z,4.70
2019-03-11T20:34:06.102Z,5.41
2019-03-11T20:36:05.791Z,3.58
2019-03-11T20:38:05.676Z,3.33
2019-03-11T20:40:05.354Z,3.16
2019-03-11T20:42:05.414Z,3.18
2019-03-11T20:44:05.638Z,4.01
2019-03-11T20:46:05.399Z,2.93
2019-03-11T20:48:05.621Z,4.00
2019-03-11T20:50:05.670Z,3.99
2019-03-11T20:52:05.667Z,2.70
2019-03-11T20:54:05.670Z,1.94
2019-03-11T20:56:05.597Z,4.31
2019-03-11T20:58:06.017Z,2.74
2019-03-11T21:00:05.598Z,4.48
2019-03-11T21:02:05.635Z,3.80
2019-03-11T21:04:05.516Z,3.49
2019-03-11T21:06:05.548Z,2.94
2019-03-11T21:08:05.696Z,4.75
2019-03-11T21:10:05.544Z,3.22
2019-03-11T21:12:05.708Z,4.86
2019-03-11T21:14:08.525Z,3.44
2019-03-11T21:16:05.542Z,2.18
2019-03-11T21:18:05.709Z,3.46
2019-03-11T21:20:05.742Z,4.37
2019-03-11T21:22:05.401Z,4.46
2019-03-11T21:24:05.640Z,3.79
2019-03-11T21:26:05.660Z,4.66
2019-03-11T21:28:05.551Z,3.33
2019-03-11T21:30:05.423Z,3.40
2019-03-11T21:32:05.527Z,2.58
2019-03-11T21:34:05.714Z,3.86
2019-03-11T21:36:06.036Z,2.83
2019-03-11T21:38:05.755Z,3.33
2019-03-11T21:40:08.441Z,3.73
2019-03-11T21:42:05.854Z,3.13
2019-03-11T21:44:05.551Z,3.45
2019-03-11T21:46:05.423Z,4.34
2019-03-11T21:48:05.902Z,3.79
2019-03-11T21:50:05.396Z,3.51
2019-03-11T21:52:05.681Z,3.79
2019-03-11T21:54:05.809Z,2.98
2019-03-11T21:56:05.580Z,2.36
2019-03-11T21:58:13.203Z,3.16
2019-03-11T22:00:05.413Z,2.80
2019-03-11T22:02:05.445Z,3.31
2019-03-11T22:04:05.413Z,2.95
2019-03-11T22:06:05.571Z,2.63
2019-03-11T22:08:05.381Z,4.61
2019-03-11T22:10:05.376Z,3.55
2019-03-11T22:12:05.475Z,3.51
2019-03-11T22:14:05.557Z,3.65
2019-03-11T22:16:05.619Z,3.38
2019-03-11T22:18:05.632Z,4.15
2019-03-11T22:20:05.721Z,4.68
2019-03-11T22:22:05.434Z,2.83
2019-03-11T22:24:05.862Z,3.46
2019-03-11T22:26:05.475Z,2.13
2019-03-11T22:28:05.492Z,3.09
2019-03-11T22:30:05.695Z,2.29
2019-03-11T22:32:05.625Z,2.71
2019-03-11T22:34:05.424Z,2.91
2019-03-11T22:36:05.638Z,3.52
2019-03-11T22:38:05.551Z,2.55
2019-03-11T22:40:06.048Z,3.32
2019-03-11T22:42:05.672Z,3.06
2019-03-11T22:44:05.876Z,2.65
2019-03-11T22:46:05.486Z,2.95
2019-03-11T22:48:05.903Z,2.19
2019-03-11T22:50:05.770Z,1.79
2019-03-11T22:52:05.514Z,1.75
2019-03-11T22:54:05.666Z,2.70
2019-03-11T22:56:05.654Z,2.51
2019-03-11T22:58:05.868Z,1.83
2019-03-11T23:00:05.616Z,1.35
2019-03-11T23:02:05.572Z,3.53
2019-03-11T23:04:05.592Z,1.79
2019-03-11T23:06:05.703Z,1.29
2019-03-11T23:08:05.620Z,1.04
2019-03-11T23:10:05.493Z,1.34
2019-03-11T23:12:05.617Z,2.08
2019-03-11T23:14:05.752Z,2.83
2019-03-11T23:16:05.657Z,1.16
2019-03-11T23:18:05.669Z,2.93
2019-03-11T23:20:05.679Z,2.50
2019-03-11T23:22:06.107Z,1.04
2019-03-11T23:24:05.703Z,1.98
2019-03-11T23:26:05.674Z,1.48
2019-03-11T23:28:05.562Z,1.76
2019-03-11T23:30:05.637Z,1.32
2019-03-11T23:32:05.618Z,2.03
2019-03-11T23:34:05.541Z,3.04
2019-03-11T23:36:07.246Z,2.03
2019-03-11T23:38:05.472Z,2.22
2019-03-11T23:40:05.702Z,1.54
2019-03-11T23:42:05.812Z,3.09
2019-03-11T23:44:05.628Z,1.87
2019-03-11T23:46:05.832Z,1.19
2019-03-11T23:48:05.637Z,3.00
2019-03-11T23:50:05.746Z,3.20
2019-03-11T23:52:05.759Z,2.13
2019-03-11T23:54:05.783Z,1.75
2019-03-11T23:56:05.790Z,2.00
2019-03-11T23:58:05.695Z,1.91
